sensor_id;sensor_type;location;lat;lon;timestamp;pressure;altitude;pressure_sealevel;temperature
14851;BMP180;7517;48.400;11.770;2022-10-14T00:00:46;96635.00;;;17.30
14851;BMP180;7517;48.400;11.770;2022-10-14T00:03:13;96637.00;;;17.40
14851;BMP180;7517;48.400;11.770;2022-10-14T00:05:41;96634.00;;;17.40
14851;BMP180;7517;48.400;11.770;2022-10-14T00:08:08;96631.00;;;17.40
14851;BMP180;7517;48.400;11.770;2022-10-14T00:10:38;96641.00;;;17.40
14851;BMP180;7517;48.400;11.770;2022-10-14T00:13:06;96645.00;;;17.40
14851;BMP180;7517;48.400;11.770;2022-10-14T00:15:39;96637.00;;;17.40
14851;BMP180;7517;48.400;11.770;2022-10-14T00:18:07;96634.00;;;17.40
14851;BMP180;7517;48.400;11.770;2022-10-14T00:20:35;96636.00;;;17.40
14851;BMP180;7517;48.400;11.770;2022-10-14T00:23:02;96636.00;;;17.40
14851;BMP180;7517;48.400;11.770;2022-10-14T00:25:30;96640.00;;;17.40
14851;BMP180;7517;48.400;11.770;2022-10-14T00:27:57;96643.00;;;17.40
14851;BMP180;7517;48.400;11.770;2022-10-14T00:30:28;96639.00;;;17.40
14851;BMP180;7517;48.400;11.770;2022-10-14T00:32:56;96635.00;;;17.40
14851;BMP180;7517;48.400;11.770;2022-10-14T00:35:23;96631.00;;;17.40
14851;BMP180;7517;48.400;11.770;2022-10-14T00:37:50;96646.00;;;17.40
14851;BMP180;7517;48.400;11.770;2022-10-14T00:40:18;96637.00;;;17.40
14851;BMP180;7517;48.400;11.770;2022-10-14T00:42:45;96632.00;;;17.40
14851;BMP180;7517;48.400;11.770;2022-10-14T00:45:14;96637.00;;;17.40
14851;BMP180;7517;48.400;11.770;2022-10-14T00:47:43;96631.00;;;17.40
14851;BMP180;7517;48.400;11.770;2022-10-14T00:50:14;96636.00;;;17.50
14851;BMP180;7517;48.400;11.770;2022-10-14T00:52:43;96635.00;;;17.40
14851;BMP180;7517;48.400;11.770;2022-10-14T00:55:15;96634.00;;;17.50
14851;BMP180;7517;48.400;11.770;2022-10-14T00:57:44;96633.00;;;17.50
14851;BMP180;7517;48.400;11.770;2022-10-14T01:00:16;96633.00;;;17.50
14851;BMP180;7517;48.400;11.770;2022-10-14T01:02:45;96630.00;;;17.50
14851;BMP180;7517;48.400;11.770;2022-10-14T01:05:16;96632.00;;;17.50
14851;BMP180;7517;48.400;11.770;2022-10-14T01:08:04;96631.00;;;17.50
14851;BMP180;7517;48.400;11.770;2022-10-14T01:10:41;96635.00;;;17.50
14851;BMP180;7517;48.400;11.770;2022-10-14T01:13:22;96638.00;;;17.50
14851;BMP180;7517;48.400;11.770;2022-10-14T01:16:01;96636.00;;;17.50
14851;BMP180;7517;48.400;11.770;2022-10-14T01:18:49;96634.00;;;17.50
14851;BMP180;7517;48.400;11.770;2022-10-14T01:21:26;96633.00;;;17.50
14851;BMP180;7517;48.400;11.770;2022-10-14T01:26:59;96636.00;;;17.50
14851;BMP180;7517;48.400;11.770;2022-10-14T01:30:02;96629.00;;;17.50
14851;BMP180;7517;48.400;11.770;2022-10-14T01:33:15;96627.00;;;17.50
14851;BMP180;7517;48.400;11.770;2022-10-14T01:36:05;96622.00;;;17.50
14851;BMP180;7517;48.400;11.770;2022-10-14T01:38:38;96630.00;;;17.50
14851;BMP180;7517;48.400;11.770;2022-10-14T01:41:20;96625.00;;;17.60
14851;BMP180;7517;48.400;11.770;2022-10-14T01:43:51;96628.00;;;17.50
14851;BMP180;7517;48.400;11.770;2022-10-14T01:46:24;96623.00;;;17.50
14851;BMP180;7517;48.400;11.770;2022-10-14T01:49:00;96624.00;;;17.50
14851;BMP180;7517;48.400;11.770;2022-10-14T01:51:35;96623.00;;;17.50
14851;BMP180;7517;48.400;11.770;2022-10-14T01:54:14;96617.00;;;17.50
14851;BMP180;7517;48.400;11.770;2022-10-14T01:56:45;96621.00;;;17.50
14851;BMP180;7517;48.400;11.770;2022-10-14T01:59:16;96613.00;;;17.50
14851;BMP180;7517;48.400;11.770;2022-10-14T02:01:55;96617.00;;;17.50
14851;BMP180;7517;48.400;11.770;2022-10-14T02:04:25;96617.00;;;17.50
14851;BMP180;7517;48.400;11.770;2022-10-14T02:07:04;96621.00;;;17.50
14851;BMP180;7517;48.400;11.770;2022-10-14T02:09:45;96612.00;;;17.50
14851;BMP180;7517;48.400;11.770;2022-10-14T02:12:36;96617.00;;;17.50
14851;BMP180;7517;48.400;11.770;2022-10-14T02:15:35;96616.00;;;17.50
14851;BMP180;7517;48.400;11.770;2022-10-14T02:18:18;96618.00;;;17.50
14851;BMP180;7517;48.400;11.770;2022-10-14T02:21:00;96616.00;;;17.60
14851;BMP180;7517;48.400;11.770;2022-10-14T02:23:44;96617.00;;;17.50
14851;BMP180;7517;48.400;11.770;2022-10-14T02:26:19;96616.00;;;17.50
14851;BMP180;7517;48.400;11.770;2022-10-14T02:28:58;96620.00;;;17.50
14851;BMP180;7517;48.400;11.770;2022-10-14T02:31:31;96621.00;;;17.50
14851;BMP180;7517;48.400;11.770;2022-10-14T02:34:12;96616.00;;;17.50
14851;BMP180;7517;48.400;11.770;2022-10-14T02:36:45;96618.00;;;17.60
14851;BMP180;7517;48.400;11.770;2022-10-14T02:39:28;96617.00;;;17.50
14851;BMP180;7517;48.400;11.770;2022-10-14T02:42:12;96623.00;;;17.60
14851;BMP180;7517;48.400;11.770;2022-10-14T02:44:51;96625.00;;;17.60
14851;BMP180;7517;48.400;11.770;2022-10-14T02:47:22;96626.00;;;17.60
14851;BMP180;7517;48.400;11.770;2022-10-14T02:50:03;96628.00;;;17.60
14851;BMP180;7517;48.400;11.770;2022-10-14T02:52:41;96629.00;;;17.60
14851;BMP180;7517;48.400;11.770;2022-10-14T02:55:14;96626.00;;;17.50
14851;BMP180;7517;48.400;11.770;2022-10-14T02:57:44;96634.00;;;17.60
14851;BMP180;7517;48.400;11.770;2022-10-14T03:00:16;96632.00;;;17.50
14851;BMP180;7517;48.400;11.770;2022-10-14T03:02:44;96629.00;;;17.60
14851;BMP180;7517;48.400;11.770;2022-10-14T03:05:15;96627.00;;;17.60
14851;BMP180;7517;48.400;11.770;2022-10-14T03:08:01;96629.00;;;17.60
14851;BMP180;7517;48.400;11.770;2022-10-14T03:10:31;96620.00;;;17.60
14851;BMP180;7517;48.400;11.770;2022-10-14T03:13:00;96624.00;;;17.50
14851;BMP180;7517;48.400;11.770;2022-10-14T03:15:33;96624.00;;;17.60
14851;BMP180;7517;48.400;11.770;2022-10-14T03:18:00;96619.00;;;17.60
14851;BMP180;7517;48.400;11.770;2022-10-14T03:20:29;96622.00;;;17.60
14851;BMP180;7517;48.400;11.770;2022-10-14T03:22:59;96620.00;;;17.60
14851;BMP180;7517;48.400;11.770;2022-10-14T03:25:32;96622.00;;;17.60
14851;BMP180;7517;48.400;11.770;2022-10-14T03:28:00;96625.00;;;17.60
14851;BMP180;7517;48.400;11.770;2022-10-14T03:30:28;96630.00;;;17.60
14851;BMP180;7517;48.400;11.770;2022-10-14T03:33:00;96623.00;;;17.60
14851;BMP180;7517;48.400;11.770;2022-10-14T03:35:29;96626.00;;;17.60
14851;BMP180;7517;48.400;11.770;2022-10-14T03:38:02;96621.00;;;17.60
14851;BMP180;7517;48.400;11.770;2022-10-14T03:40:31;96619.00;;;17.60
14851;BMP180;7517;48.400;11.770;2022-10-14T03:43:08;96615.00;;;17.60
14851;BMP180;7517;48.400;11.770;2022-10-14T03:45:38;96620.00;;;17.60
14851;BMP180;7517;48.400;11.770;2022-10-14T03:48:17;96625.00;;;17.60
14851;BMP180;7517;48.400;11.770;2022-10-14T03:50:46;96622.00;;;17.60
14851;BMP180;7517;48.400;11.770;2022-10-14T03:53:17;96623.00;;;17.60
14851;BMP180;7517;48.400;11.770;2022-10-14T03:55:46;96626.00;;;17.60
14851;BMP180;7517;48.400;11.770;2022-10-14T03:58:16;96625.00;;;17.60
14851;BMP180;7517;48.400;11.770;2022-10-14T04:00:45;96623.00;;;17.70
14851;BMP180;7517;48.400;11.770;2022-10-14T04:03:13;96619.00;;;17.70
14851;BMP180;7517;48.400;11.770;2022-10-14T04:05:40;96613.00;;;17.70
14851;BMP180;7517;48.400;11.770;2022-10-14T04:08:12;96614.00;;;17.70
14851;BMP180;7517;48.400;11.770;2022-10-14T04:10:41;96609.00;;;17.70
14851;BMP180;7517;48.400;11.770;2022-10-14T04:13:17;96614.00;;;17.70
14851;BMP180;7517;48.400;11.770;2022-10-14T04:15:51;96610.00;;;17.70
14851;BMP180;7517;48.400;11.770;2022-10-14T04:18:19;96602.00;;;17.70
14851;BMP180;7517;48.400;11.770;2022-10-14T04:20:47;96591.00;;;17.70
14851;BMP180;7517;48.400;11.770;2022-10-14T04:23:20;96589.00;;;17.70
14851;BMP180;7517;48.400;11.770;2022-10-14T04:25:49;96592.00;;;17.70
14851;BMP180;7517;48.400;11.770;2022-10-14T04:28:16;96591.00;;;17.70
14851;BMP180;7517;48.400;11.770;2022-10-14T04:30:43;96584.00;;;17.70
14851;BMP180;7517;48.400;11.770;2022-10-14T04:33:10;96586.00;;;17.70
14851;BMP180;7517;48.400;11.770;2022-10-14T04:35:37;96582.00;;;17.60
14851;BMP180;7517;48.400;11.770;2022-10-14T04:38:04;96583.00;;;17.70
14851;BMP180;7517;48.400;11.770;2022-10-14T04:40:33;96589.00;;;17.60
14851;BMP180;7517;48.400;11.770;2022-10-14T04:43:00;96586.00;;;17.60
14851;BMP180;7517;48.400;11.770;2022-10-14T04:45:34;96588.00;;;17.60
14851;BMP180;7517;48.400;11.770;2022-10-14T04:48:01;96579.00;;;17.60
14851;BMP180;7517;48.400;11.770;2022-10-14T04:50:35;96588.00;;;17.60
14851;BMP180;7517;48.400;11.770;2022-10-14T04:53:08;96587.00;;;17.50
14851;BMP180;7517;48.400;11.770;2022-10-14T04:55:37;96582.00;;;17.50
14851;BMP180;7517;48.400;11.770;2022-10-14T04:58:05;96585.00;;;17.50
14851;BMP180;7517;48.400;11.770;2022-10-14T05:00:32;96577.00;;;17.50
14851;BMP180;7517;48.400;11.770;2022-10-14T05:02:59;96578.00;;;17.50
14851;BMP180;7517;48.400;11.770;2022-10-14T05:05:26;96577.00;;;17.50
14851;BMP180;7517;48.400;11.770;2022-10-14T05:07:59;96572.00;;;17.50
14851;BMP180;7517;48.400;11.770;2022-10-14T05:10:26;96576.00;;;17.50
14851;BMP180;7517;48.400;11.770;2022-10-14T05:13:14;96575.00;;;17.50
14851;BMP180;7517;48.400;11.770;2022-10-14T05:15:44;96575.00;;;17.50
14851;BMP180;7517;48.400;11.770;2022-10-14T05:18:11;96570.00;;;17.50
14851;BMP180;7517;48.400;11.770;2022-10-14T05:20:38;96567.00;;;17.50
14851;BMP180;7517;48.400;11.770;2022-10-14T05:23:05;96567.00;;;17.50
14851;BMP180;7517;48.400;11.770;2022-10-14T05:25:33;96568.00;;;17.60
14851;BMP180;7517;48.400;11.770;2022-10-14T05:28:00;96560.00;;;17.60
14851;BMP180;7517;48.400;11.770;2022-10-14T05:30:28;96567.00;;;17.60
14851;BMP180;7517;48.400;11.770;2022-10-14T05:33:00;96565.00;;;17.60
14851;BMP180;7517;48.400;11.770;2022-10-14T05:35:27;96559.00;;;17.60
14851;BMP180;7517;48.400;11.770;2022-10-14T05:38:02;96554.00;;;17.60
14851;BMP180;7517;48.400;11.770;2022-10-14T05:40:31;96552.00;;;17.60
14851;BMP180;7517;48.400;11.770;2022-10-14T05:43:01;96557.00;;;17.60
14851;BMP180;7517;48.400;11.770;2022-10-14T05:45:35;96557.00;;;17.60
14851;BMP180;7517;48.400;11.770;2022-10-14T05:48:04;96564.00;;;17.60
14851;BMP180;7517;48.400;11.770;2022-10-14T05:50:31;96564.00;;;17.60
14851;BMP180;7517;48.400;11.770;2022-10-14T05:53:01;96562.00;;;17.60
14851;BMP180;7517;48.400;11.770;2022-10-14T05:55:32;96560.00;;;17.60
14851;BMP180;7517;48.400;11.770;2022-10-14T05:58:00;96556.00;;;17.60
14851;BMP180;7517;48.400;11.770;2022-10-14T06:00:28;96556.00;;;17.60
14851;BMP180;7517;48.400;11.770;2022-10-14T06:02:57;96563.00;;;17.70
14851;BMP180;7517;48.400;11.770;2022-10-14T06:05:25;96561.00;;;17.70
14851;BMP180;7517;48.400;11.770;2022-10-14T06:07:52;96565.00;;;17.70
14851;BMP180;7517;48.400;11.770;2022-10-14T06:10:19;96560.00;;;17.70
14851;BMP180;7517;48.400;11.770;2022-10-14T06:12:46;96553.00;;;17.70
14851;BMP180;7517;48.400;11.770;2022-10-14T06:15:13;96560.00;;;17.70
14851;BMP180;7517;48.400;11.770;2022-10-14T06:17:41;96552.00;;;17.70
14851;BMP180;7517;48.400;11.770;2022-10-14T06:20:13;96556.00;;;17.70
14851;BMP180;7517;48.400;11.770;2022-10-14T06:22:49;96550.00;;;17.70
14851;BMP180;7517;48.400;11.770;2022-10-14T06:25:21;96553.00;;;17.70
14851;BMP180;7517;48.400;11.770;2022-10-14T06:27:51;96557.00;;;17.80
14851;BMP180;7517;48.400;11.770;2022-10-14T06:30:27;96552.00;;;17.70
14851;BMP180;7517;48.400;11.770;2022-10-14T06:32:54;96557.00;;;17.80
14851;BMP180;7517;48.400;11.770;2022-10-14T06:35:26;96554.00;;;17.80
14851;BMP180;7517;48.400;11.770;2022-10-14T06:38:07;96554.00;;;17.80
14851;BMP180;7517;48.400;11.770;2022-10-14T06:40:35;96557.00;;;17.80
14851;BMP180;7517;48.400;11.770;2022-10-14T06:43:05;96568.00;;;17.80
14851;BMP180;7517;48.400;11.770;2022-10-14T06:45:37;96563.00;;;17.90
14851;BMP180;7517;48.400;11.770;2022-10-14T06:48:05;96564.00;;;17.90
14851;BMP180;7517;48.400;11.770;2022-10-14T06:50:35;96563.00;;;17.90
14851;BMP180;7517;48.400;11.770;2022-10-14T06:53:02;96558.00;;;17.90
14851;BMP180;7517;48.400;11.770;2022-10-14T06:55:35;96567.00;;;18.00
14851;BMP180;7517;48.400;11.770;2022-10-14T06:58:02;96565.00;;;18.00
14851;BMP180;7517;48.400;11.770;2022-10-14T07:00:29;96567.00;;;18.00
14851;BMP180;7517;48.400;11.770;2022-10-14T07:02:57;96563.00;;;18.00
14851;BMP180;7517;48.400;11.770;2022-10-14T07:05:25;96559.00;;;18.10
14851;BMP180;7517;48.400;11.770;2022-10-14T07:07:56;96558.00;;;18.10
14851;BMP180;7517;48.400;11.770;2022-10-14T07:10:23;96558.00;;;18.10
14851;BMP180;7517;48.400;11.770;2022-10-14T07:12:53;96555.00;;;18.10
14851;BMP180;7517;48.400;11.770;2022-10-14T07:15:21;96557.00;;;18.10
14851;BMP180;7517;48.400;11.770;2022-10-14T07:17:48;96551.00;;;18.10
14851;BMP180;7517;48.400;11.770;2022-10-14T07:20:15;96549.00;;;18.10
14851;BMP180;7517;48.400;11.770;2022-10-14T07:25:15;96549.00;;;18.20
14851;BMP180;7517;48.400;11.770;2022-10-14T07:27:47;96554.00;;;18.30
14851;BMP180;7517;48.400;11.770;2022-10-14T07:30:16;96548.00;;;18.30
14851;BMP180;7517;48.400;11.770;2022-10-14T07:32:50;96548.00;;;18.40
14851;BMP180;7517;48.400;11.770;2022-10-14T07:35:20;96547.00;;;18.40
14851;BMP180;7517;48.400;11.770;2022-10-14T07:37:50;96545.00;;;18.50
14851;BMP180;7517;48.400;11.770;2022-10-14T07:40:20;96548.00;;;18.50
14851;BMP180;7517;48.400;11.770;2022-10-14T07:42:47;96550.00;;;18.50
14851;BMP180;7517;48.400;11.770;2022-10-14T07:45:20;96555.00;;;18.50
14851;BMP180;7517;48.400;11.770;2022-10-14T07:47:52;96554.00;;;18.60
14851;BMP180;7517;48.400;11.770;2022-10-14T07:50:22;96554.00;;;18.60
14851;BMP180;7517;48.400;11.770;2022-10-14T07:52:50;96560.00;;;18.60
14851;BMP180;7517;48.400;11.770;2022-10-14T07:55:22;96557.00;;;18.70
14851;BMP180;7517;48.400;11.770;2022-10-14T07:57:50;96550.00;;;18.70
14851;BMP180;7517;48.400;11.770;2022-10-14T08:00:32;96556.00;;;18.80
14851;BMP180;7517;48.400;11.770;2022-10-14T08:03:01;96556.00;;;18.80
14851;BMP180;7517;48.400;11.770;2022-10-14T08:05:33;96555.00;;;18.90
14851;BMP180;7517;48.400;11.770;2022-10-14T08:08:05;96557.00;;;18.90
14851;BMP180;7517;48.400;11.770;2022-10-14T08:10:40;96550.00;;;18.90
14851;BMP180;7517;48.400;11.770;2022-10-14T08:13:11;96549.00;;;18.90
14851;BMP180;7517;48.400;11.770;2022-10-14T08:15:45;96547.00;;;19.00
14851;BMP180;7517;48.400;11.770;2022-10-14T08:18:15;96558.00;;;19.10
14851;BMP180;7517;48.400;11.770;2022-10-14T08:20:45;96551.00;;;19.10
14851;BMP180;7517;48.400;11.770;2022-10-14T08:23:15;96551.00;;;19.20
14851;BMP180;7517;48.400;11.770;2022-10-14T08:25:47;96557.00;;;19.30
14851;BMP180;7517;48.400;11.770;2022-10-14T08:28:15;96547.00;;;19.30
14851;BMP180;7517;48.400;11.770;2022-10-14T08:30:47;96553.00;;;19.40
14851;BMP180;7517;48.400;11.770;2022-10-14T08:33:17;96553.00;;;19.50
14851;BMP180;7517;48.400;11.770;2022-10-14T08:35:48;96560.00;;;19.50
14851;BMP180;7517;48.400;11.770;2022-10-14T08:38:18;96553.00;;;19.60
14851;BMP180;7517;48.400;11.770;2022-10-14T08:41:05;96559.00;;;19.60
14851;BMP180;7517;48.400;11.770;2022-10-14T08:43:38;96551.00;;;19.70
14851;BMP180;7517;48.400;11.770;2022-10-14T08:46:20;96551.00;;;19.80
14851;BMP180;7517;48.400;11.770;2022-10-14T08:48:58;96550.00;;;19.90
14851;BMP180;7517;48.400;11.770;2022-10-14T08:51:33;96546.00;;;20.00
14851;BMP180;7517;48.400;11.770;2022-10-14T08:54:11;96543.00;;;20.10
14851;BMP180;7517;48.400;11.770;2022-10-14T08:56:43;96540.00;;;20.20
14851;BMP180;7517;48.400;11.770;2022-10-14T08:59:16;96540.00;;;20.30
14851;BMP180;7517;48.400;11.770;2022-10-14T09:01:51;96549.00;;;20.40
14851;BMP180;7517;48.400;11.770;2022-10-14T09:04:19;96545.00;;;20.40
14851;BMP180;7517;48.400;11.770;2022-10-14T09:06:54;96548.00;;;20.50
14851;BMP180;7517;48.400;11.770;2022-10-14T09:09:44;96549.00;;;20.60
14851;BMP180;7517;48.400;11.770;2022-10-14T09:12:19;96546.00;;;20.60
14851;BMP180;7517;48.400;11.770;2022-10-14T09:15:05;96544.00;;;20.80
14851;BMP180;7517;48.400;11.770;2022-10-14T09:17:45;96540.00;;;20.80
14851;BMP180;7517;48.400;11.770;2022-10-14T09:20:24;96546.00;;;20.90
14851;BMP180;7517;48.400;11.770;2022-10-14T09:23:14;96549.00;;;21.10
14851;BMP180;7517;48.400;11.770;2022-10-14T09:25:55;96542.00;;;21.20
14851;BMP180;7517;48.400;11.770;2022-10-14T09:28:33;96545.00;;;21.30
14851;BMP180;7517;48.400;11.770;2022-10-14T09:31:12;96541.00;;;21.40
14851;BMP180;7517;48.400;11.770;2022-10-14T09:33:44;96536.00;;;21.50
14851;BMP180;7517;48.400;11.770;2022-10-14T09:36:17;96532.00;;;21.50
14851;BMP180;7517;48.400;11.770;2022-10-14T09:38:49;96526.00;;;21.70
14851;BMP180;7517;48.400;11.770;2022-10-14T09:41:25;96535.00;;;21.80
14851;BMP180;7517;48.400;11.770;2022-10-14T09:44:23;96533.00;;;22.00
14851;BMP180;7517;48.400;11.770;2022-10-14T09:46:56;96528.00;;;22.10
14851;BMP180;7517;48.400;11.770;2022-10-14T09:49:36;96533.00;;;22.20
14851;BMP180;7517;48.400;11.770;2022-10-14T09:52:21;96532.00;;;22.30
14851;BMP180;7517;48.400;11.770;2022-10-14T09:54:55;96526.00;;;22.40
14851;BMP180;7517;48.400;11.770;2022-10-14T09:57:28;96533.00;;;22.40
14851;BMP180;7517;48.400;11.770;2022-10-14T10:00:25;96530.00;;;22.50
14851;BMP180;7517;48.400;11.770;2022-10-14T10:02:56;96525.00;;;22.60
14851;BMP180;7517;48.400;11.770;2022-10-14T10:05:29;96521.00;;;22.60
14851;BMP180;7517;48.400;11.770;2022-10-14T10:08:03;96519.00;;;22.70
14851;BMP180;7517;48.400;11.770;2022-10-14T10:10:33;96525.00;;;22.80
14851;BMP180;7517;48.400;11.770;2022-10-14T10:16:39;96530.00;;;23.10
14851;BMP180;7517;48.400;11.770;2022-10-14T10:19:40;96522.00;;;23.20
14851;BMP180;7517;48.400;11.770;2022-10-14T10:22:30;96530.00;;;23.30
14851;BMP180;7517;48.400;11.770;2022-10-14T10:25:24;96530.00;;;23.40
14851;BMP180;7517;48.400;11.770;2022-10-14T10:27:59;96525.00;;;23.40
14851;BMP180;7517;48.400;11.770;2022-10-14T10:30:30;96522.00;;;23.40
14851;BMP180;7517;48.400;11.770;2022-10-14T10:33:21;96517.00;;;23.50
14851;BMP180;7517;48.400;11.770;2022-10-14T10:36:12;96518.00;;;23.40
14851;BMP180;7517;48.400;11.770;2022-10-14T10:39:21;96511.00;;;23.40
14851;BMP180;7517;48.400;11.770;2022-10-14T10:42:12;96490.00;;;23.40
14851;BMP180;7517;48.400;11.770;2022-10-14T10:45:15;96500.00;;;23.30
14851;BMP180;7517;48.400;11.770;2022-10-14T10:47:50;96495.00;;;23.30
14851;BMP180;7517;48.400;11.770;2022-10-14T10:50:45;96491.00;;;23.30
14851;BMP180;7517;48.400;11.770;2022-10-14T10:53:43;96486.00;;;23.30
14851;BMP180;7517;48.400;11.770;2022-10-14T10:56:33;96489.00;;;23.20
14851;BMP180;7517;48.400;11.770;2022-10-14T10:59:49;96492.00;;;23.10
14851;BMP180;7517;48.400;11.770;2022-10-14T11:02:57;96494.00;;;23.00
14851;BMP180;7517;48.400;11.770;2022-10-14T11:05:48;96488.00;;;23.00
14851;BMP180;7517;48.400;11.770;2022-10-14T11:08:34;96479.00;;;23.00
14851;BMP180;7517;48.400;11.770;2022-10-14T11:11:26;96479.00;;;22.90
14851;BMP180;7517;48.400;11.770;2022-10-14T11:17:30;96458.00;;;22.80
14851;BMP180;7517;48.400;11.770;2022-10-14T11:20:22;96447.00;;;22.70
14851;BMP180;7517;48.400;11.770;2022-10-14T11:23:35;96450.00;;;22.70
14851;BMP180;7517;48.400;11.770;2022-10-14T11:26:18;96445.00;;;22.70
14851;BMP180;7517;48.400;11.770;2022-10-14T11:29:07;96434.00;;;22.60
14851;BMP180;7517;48.400;11.770;2022-10-14T11:31:49;96430.00;;;22.50
14851;BMP180;7517;48.400;11.770;2022-10-14T11:34:46;96426.00;;;22.50
14851;BMP180;7517;48.400;11.770;2022-10-14T11:37:28;96420.00;;;22.50
14851;BMP180;7517;48.400;11.770;2022-10-14T11:40:06;96414.00;;;22.40
14851;BMP180;7517;48.400;11.770;2022-10-14T11:43:03;96406.00;;;22.40
14851;BMP180;7517;48.400;11.770;2022-10-14T11:45:49;96398.00;;;22.40
14851;BMP180;7517;48.400;11.770;2022-10-14T11:48:37;96398.00;;;22.40
14851;BMP180;7517;48.400;11.770;2022-10-14T11:51:15;96399.00;;;22.30
14851;BMP180;7517;48.400;11.770;2022-10-14T11:53:57;96405.00;;;22.30
14851;BMP180;7517;48.400;11.770;2022-10-14T11:56:55;96398.00;;;22.30
14851;BMP180;7517;48.400;11.770;2022-10-14T11:59:52;96397.00;;;22.40
14851;BMP180;7517;48.400;11.770;2022-10-14T12:02:39;96398.00;;;22.50
14851;BMP180;7517;48.400;11.770;2022-10-14T12:05:20;96393.00;;;22.50
14851;BMP180;7517;48.400;11.770;2022-10-14T12:08:08;96391.00;;;22.60
14851;BMP180;7517;48.400;11.770;2022-10-14T12:10:46;96391.00;;;22.60
14851;BMP180;7517;48.400;11.770;2022-10-14T12:13:31;96393.00;;;22.60
14851;BMP180;7517;48.400;11.770;2022-10-14T12:16:05;96385.00;;;22.70
14851;BMP180;7517;48.400;11.770;2022-10-14T12:18:35;96382.00;;;22.70
14851;BMP180;7517;48.400;11.770;2022-10-14T12:21:14;96385.00;;;22.70
14851;BMP180;7517;48.400;11.770;2022-10-14T12:23:49;96387.00;;;22.70
14851;BMP180;7517;48.400;11.770;2022-10-14T12:26:49;96380.00;;;22.70
14851;BMP180;7517;48.400;11.770;2022-10-14T12:29:23;96380.00;;;22.80
14851;BMP180;7517;48.400;11.770;2022-10-14T12:32:07;96381.00;;;22.80
14851;BMP180;7517;48.400;11.770;2022-10-14T12:34:43;96377.00;;;22.80
14851;BMP180;7517;48.400;11.770;2022-10-14T12:37:48;96372.00;;;22.90
14851;BMP180;7517;48.400;11.770;2022-10-14T12:40:29;96364.00;;;22.90
14851;BMP180;7517;48.400;11.770;2022-10-14T12:43:02;96366.00;;;22.90
14851;BMP180;7517;48.400;11.770;2022-10-14T12:45:34;96359.00;;;22.90
14851;BMP180;7517;48.400;11.770;2022-10-14T12:48:10;96360.00;;;22.90
14851;BMP180;7517;48.400;11.770;2022-10-14T12:50:44;96358.00;;;22.90
14851;BMP180;7517;48.400;11.770;2022-10-14T12:53:22;96351.00;;;22.90
14851;BMP180;7517;48.400;11.770;2022-10-14T12:55:53;96347.00;;;22.80
14851;BMP180;7517;48.400;11.770;2022-10-14T12:58:29;96342.00;;;22.90
14851;BMP180;7517;48.400;11.770;2022-10-14T13:01:04;96345.00;;;22.90
14851;BMP180;7517;48.400;11.770;2022-10-14T13:03:41;96340.00;;;22.90
14851;BMP180;7517;48.400;11.770;2022-10-14T13:06:37;96333.00;;;22.90
14851;BMP180;7517;48.400;11.770;2022-10-14T13:09:37;96328.00;;;22.90
14851;BMP180;7517;48.400;11.770;2022-10-14T13:12:39;96329.00;;;22.90
14851;BMP180;7517;48.400;11.770;2022-10-14T13:15:51;96328.00;;;22.90
14851;BMP180;7517;48.400;11.770;2022-10-14T13:18:59;96329.00;;;22.90
14851;BMP180;7517;48.400;11.770;2022-10-14T13:21:51;96327.00;;;22.90
14851;BMP180;7517;48.400;11.770;2022-10-14T13:24:27;96320.00;;;23.00
14851;BMP180;7517;48.400;11.770;2022-10-14T13:27:08;96322.00;;;23.00
14851;BMP180;7517;48.400;11.770;2022-10-14T13:30:00;96320.00;;;23.00
14851;BMP180;7517;48.400;11.770;2022-10-14T13:32:39;96322.00;;;23.00
14851;BMP180;7517;48.400;11.770;2022-10-14T13:35:21;96315.00;;;23.00
14851;BMP180;7517;48.400;11.770;2022-10-14T13:38:01;96325.00;;;23.00
14851;BMP180;7517;48.400;11.770;2022-10-14T13:40:32;96327.00;;;23.00
14851;BMP180;7517;48.400;11.770;2022-10-14T13:43:05;96326.00;;;23.00
14851;BMP180;7517;48.400;11.770;2022-10-14T13:45:42;96316.00;;;23.00
14851;BMP180;7517;48.400;11.770;2022-10-14T13:48:14;96325.00;;;23.00
14851;BMP180;7517;48.400;11.770;2022-10-14T13:50:49;96309.00;;;23.00
14851;BMP180;7517;48.400;11.770;2022-10-14T13:53:21;96320.00;;;23.00
14851;BMP180;7517;48.400;11.770;2022-10-14T13:55:50;96317.00;;;23.00
14851;BMP180;7517;48.400;11.770;2022-10-14T13:58:20;96317.00;;;23.00
14851;BMP180;7517;48.400;11.770;2022-10-14T14:00:59;96318.00;;;23.00
14851;BMP180;7517;48.400;11.770;2022-10-14T14:03:34;96313.00;;;23.00
14851;BMP180;7517;48.400;11.770;2022-10-14T14:06:09;96318.00;;;23.00
14851;BMP180;7517;48.400;11.770;2022-10-14T14:08:46;96317.00;;;23.00
14851;BMP180;7517;48.400;11.770;2022-10-14T14:11:20;96313.00;;;23.00
14851;BMP180;7517;48.400;11.770;2022-10-14T14:14:02;96315.00;;;23.00
14851;BMP180;7517;48.400;11.770;2022-10-14T14:16:34;96313.00;;;23.00
14851;BMP180;7517;48.400;11.770;2022-10-14T14:19:15;96320.00;;;23.00
14851;BMP180;7517;48.400;11.770;2022-10-14T14:21:44;96313.00;;;22.90
14851;BMP180;7517;48.400;11.770;2022-10-14T14:24:23;96315.00;;;22.90
14851;BMP180;7517;48.400;11.770;2022-10-14T14:26:55;96322.00;;;22.90
14851;BMP180;7517;48.400;11.770;2022-10-14T14:29:26;96317.00;;;22.90
14851;BMP180;7517;48.400;11.770;2022-10-14T14:31:55;96313.00;;;22.90
14851;BMP180;7517;48.400;11.770;2022-10-14T14:34:26;96317.00;;;22.90
14851;BMP180;7517;48.400;11.770;2022-10-14T14:36:57;96310.00;;;22.90
14851;BMP180;7517;48.400;11.770;2022-10-14T14:39:28;96313.00;;;22.80
14851;BMP180;7517;48.400;11.770;2022-10-14T14:41:57;96324.00;;;22.80
14851;BMP180;7517;48.400;11.770;2022-10-14T14:44:28;96319.00;;;22.80
14851;BMP180;7517;48.400;11.770;2022-10-14T14:46:59;96321.00;;;22.80
14851;BMP180;7517;48.400;11.770;2022-10-14T14:49:31;96318.00;;;22.70
14851;BMP180;7517;48.400;11.770;2022-10-14T14:52:01;96324.00;;;22.60
14851;BMP180;7517;48.400;11.770;2022-10-14T14:54:29;96340.00;;;22.60
14851;BMP180;7517;48.400;11.770;2022-10-14T14:57:02;96341.00;;;22.50
14851;BMP180;7517;48.400;11.770;2022-10-14T14:59:34;96334.00;;;22.30
14851;BMP180;7517;48.400;11.770;2022-10-14T15:02:11;96339.00;;;22.20
14851;BMP180;7517;48.400;11.770;2022-10-14T15:04:39;96335.00;;;22.10
14851;BMP180;7517;48.400;11.770;2022-10-14T15:07:14;96343.00;;;22.00
14851;BMP180;7517;48.400;11.770;2022-10-14T15:09:45;96347.00;;;21.90